Big Bear Station Historical Data
Daily Summary for July 29, 2017 Units:  English    Metric   Both
« Previous Day
Next Day »
Daily Weekly Monthly Yearly Custom
  High: Low: Average:
Temperature: 86.7 °F 51.8 °F 67.6 °F
Dew Point: 52.8 °F 35.8 °F 44.4 °F
Humidity: 71 % 27 % 46 %
Wind Speed: 8.3 mph 0.0 mph 2.1 mph
Wind Gust: -999.0 mph - -
Wind:- - West
Pressure: 30.34 in 30.27 in -
Precipitation: 0.00 in    
Historical Graphs
 
 
Tabular Data for July 29, 2017
Time Temperature Dew Point Pressure Wind Wind Speed Wind Gust Humidity Rainfall Rate (Hourly)
00:08 58.1 °F 36.9 °F 30.28 in Calm   -999.0 mph 45 % 0 in
00:23 57.9 °F 37.8 °F 30.28 in Calm   -999.0 mph 47 % 0 in
00:38 57.4 °F 39.4 °F 30.28 in Calm   -999.0 mph 51 % 0 in
00:53 57.2 °F 37.1 °F 30.28 in Calm   -999.0 mph 47 % 0 in
01:08 56.5 °F 37.0 °F 30.27 in SSE 1.7 mph -999.0 mph 48 % 0 in
01:24 56.3 °F 39.4 °F 30.27 in Calm   -999.0 mph 53 % 0 in
01:39 55.9 °F 40.4 °F 30.27 in Calm   -999.0 mph 56 % 0 in
01:54 55.8 °F 40.8 °F 30.27 in Calm   -999.0 mph 57 % 0 in
02:09 55.6 °F 41.5 °F 30.27 in Calm   -999.0 mph 59 % 0 in
02:24 55.6 °F 41.5 °F 30.27 in Calm   -999.0 mph 59 % 0 in
02:40 55.2 °F 42.0 °F 30.27 in Calm   -999.0 mph 61 % 0 in
02:55 55.0 °F 40.9 °F 30.27 in South 2.2 mph -999.0 mph 59 % 0 in
03:10 54.9 °F 40.8 °F 30.27 in South 1.7 mph -999.0 mph 59 % 0 in
03:25 54.5 °F 39.1 °F 30.27 in SSE 1.1 mph -999.0 mph 56 % 0 in
03:41 54.5 °F 39.6 °F 30.27 in SSE 1.7 mph -999.0 mph 57 % 0 in
03:56 54.0 °F 39.6 °F 30.27 in South 1.7 mph -999.0 mph 58 % 0 in
04:11 53.8 °F 39.8 °F 30.27 in Calm   -999.0 mph 59 % 0 in
04:26 53.8 °F 40.7 °F 30.27 in Calm   -999.0 mph 61 % 0 in
04:41 53.2 °F 40.1 °F 30.27 in Calm   -999.0 mph 61 % 0 in
04:57 53.1 °F 40.0 °F 30.27 in Calm   -999.0 mph 61 % 0 in
05:12 52.5 °F 40.3 °F 30.28 in Calm   -999.0 mph 63 % 0 in
05:42 52.5 °F 43.4 °F 30.28 in Calm   -999.0 mph 71 % 0 in
05:57 52.2 °F 42.3 °F 30.29 in Calm   -999.0 mph 69 % 0 in
06:13 51.8 °F 42.7 °F 30.29 in Calm   -999.0 mph 71 % 0 in
06:28 52.0 °F 41.4 °F 30.29 in Calm   -999.0 mph 67 % 0 in
06:43 52.2 °F 40.8 °F 30.30 in Calm   -999.0 mph 65 % 0 in
06:58 52.5 °F 41.5 °F 30.30 in Calm   -999.0 mph 66 % 0 in
07:13 52.7 °F 41.7 °F 30.30 in Calm   -999.0 mph 66 % 0 in
07:29 54.0 °F 43.3 °F 30.30 in Calm   -999.0 mph 67 % 0 in
07:44 54.0 °F 44.4 °F 30.30 in Calm   -999.0 mph 70 % 0 in
07:59 55.2 °F 45.2 °F 30.30 in Calm   -999.0 mph 69 % 0 in
08:14 56.8 °F 46.7 °F 30.31 in Calm   -999.0 mph 69 % 0 in
08:30 59.0 °F 46.8 °F 30.31 in Calm   -999.0 mph 64 % 0 in
08:45 62.1 °F 42.7 °F 30.31 in Calm   -999.0 mph 49 % 0 in
09:00 66.2 °F 41.8 °F 30.31 in NW 3.2 mph -999.0 mph 41 % 0 in
09:15 69.4 °F 42.0 °F 30.31 in NW 3.7 mph -999.0 mph 37 % 0 in
09:31 71.1 °F 43.5 °F 30.31 in NNW 3.2 mph -999.0 mph 37 % 0 in
09:46 72.9 °F 42.9 °F 30.31 in WNW 3.7 mph -999.0 mph 34 % 0 in
10:01 73.9 °F 43.0 °F 30.31 in NNW 4.7 mph -999.0 mph 33 % 0 in
10:31 75.6 °F 42.8 °F 30.32 in NNE 3.7 mph -999.0 mph 31 % 0 in
10:47 75.6 °F 41.1 °F 30.32 in North 8.3 mph -999.0 mph 29 % 0 in
11:02 76.5 °F 43.6 °F 30.32 in WNW 5.3 mph -999.0 mph 31 % 0 in
11:17 78.1 °F 45.0 °F 30.32 in North 3.7 mph -999.0 mph 31 % 0 in
11:33 79.2 °F 45.1 °F 30.32 in NNW 4.2 mph -999.0 mph 30 % 0 in
11:48 80.6 °F 47.2 °F 30.32 in North 4.7 mph -999.0 mph 31 % 0 in
12:03 81.9 °F 48.3 °F 30.32 in NW 3.7 mph -999.0 mph 31 % 0 in
12:18 82.9 °F 50.9 °F 30.32 in WNW 5.8 mph -999.0 mph 33 % 0 in
12:33 83.5 °F 48.8 °F 30.32 in NNW 4.2 mph -999.0 mph 30 % 0 in
12:49 84.0 °F 49.2 °F 30.32 in NNW 5.3 mph -999.0 mph 30 % 0 in
13:04 83.7 °F 51.6 °F 30.32 in NW 4.7 mph -999.0 mph 33 % 0 in
13:19 85.1 °F 51.1 °F 30.32 in NW 6.3 mph -999.0 mph 31 % 0 in
13:34 85.8 °F 48.9 °F 30.31 in North 5.8 mph -999.0 mph 28 % 0 in
13:50 86.7 °F 48.7 °F 30.31 in WNW 5.3 mph -999.0 mph 27 % 0 in
14:05 84.6 °F 49.8 °F 30.31 in WNW 5.3 mph -999.0 mph 30 % 0 in
14:20 81.1 °F 49.3 °F 30.31 in WNW 4.7 mph -999.0 mph 33 % 0 in
14:35 84.9 °F 47.2 °F 30.31 in NE 2.7 mph -999.0 mph 27 % 0 in
14:50 82.0 °F 49.2 °F 30.31 in NNW 1.7 mph -999.0 mph 32 % 0 in
15:06 83.3 °F 49.5 °F 30.31 in SSW 1.1 mph -999.0 mph 31 % 0 in
15:22 83.5 °F 51.4 °F 30.30 in NW 6.3 mph -999.0 mph 33 % 0 in
15:38 83.3 °F 48.6 °F 30.30 in NW 6.3 mph -999.0 mph 30 % 0 in
15:53 83.7 °F 47.1 °F 30.30 in NE 1.1 mph -999.0 mph 28 % 0 in
16:08 82.4 °F 47.9 °F 30.30 in SE 2.7 mph -999.0 mph 30 % 0 in
16:23 82.6 °F 48.0 °F 30.30 in WNW 2.2 mph -999.0 mph 30 % 0 in
16:39 82.2 °F 48.6 °F 30.30 in NW 7.8 mph -999.0 mph 31 % 0 in
16:54 84.0 °F 49.2 °F 30.29 in NNW 2.2 mph -999.0 mph 30 % 0 in
17:09 83.8 °F 50.0 °F 30.29 in West 3.2 mph -999.0 mph 31 % 0 in
17:25 83.5 °F 49.7 °F 30.29 in NW 4.7 mph -999.0 mph 31 % 0 in
17:40 82.6 °F 50.6 °F 30.29 in NNW 4.2 mph -999.0 mph 33 % 0 in
17:55 82.6 °F 51.4 °F 30.28 in NW 3.7 mph -999.0 mph 34 % 0 in
18:11 80.4 °F 48.7 °F 30.29 in NNW 3.2 mph -999.0 mph 33 % 0 in
18:26 80.1 °F 52.2 °F 30.28 in NW 5.8 mph -999.0 mph 38 % 0 in
18:41 76.8 °F 51.3 °F 30.29 in NW 4.2 mph -999.0 mph 41 % 0 in
18:56 76.3 °F 52.8 °F 30.29 in NW 7.3 mph -999.0 mph 44 % 0 in
19:12 74.7 °F 52.6 °F 30.29 in NW 3.7 mph -999.0 mph 46 % 0 in
19:27 71.1 °F 52.6 °F 30.30 in North 2.7 mph -999.0 mph 52 % 0 in
19:42 69.1 °F 51.8 °F 30.30 in Calm   -999.0 mph 54 % 0 in
19:57 68.0 °F 49.2 °F 30.30 in NE 1.7 mph -999.0 mph 51 % 0 in
20:13 66.9 °F 47.7 °F 30.30 in NNW 1.1 mph -999.0 mph 50 % 0 in
20:28 66.6 °F 44.0 °F 30.30 in Calm   -999.0 mph 44 % 0 in
20:43 65.5 °F 39.9 °F 30.31 in Calm   -999.0 mph 39 % 0 in
20:58 64.8 °F 38.6 °F 30.32 in Calm   -999.0 mph 38 % 0 in
21:13 64.0 °F 35.8 °F 30.32 in Calm   -999.0 mph 35 % 0 in
21:29 63.5 °F 36.8 °F 30.32 in Calm   -999.0 mph 37 % 0 in
21:44 62.6 °F 37.3 °F 30.33 in South 1.7 mph -999.0 mph 39 % 0 in
21:59 62.1 °F 39.9 °F 30.34 in Calm   -999.0 mph 44 % 0 in
22:14 61.3 °F 39.8 °F 30.34 in Calm   -999.0 mph 45 % 0 in
22:29 60.4 °F 42.2 °F 30.34 in Calm   -999.0 mph 51 % 0 in
22:45 59.7 °F 42.5 °F 30.34 in Calm   -999.0 mph 53 % 0 in
23:00 59.5 °F 42.8 °F 30.34 in Calm   -999.0 mph 54 % 0 in
23:15 59.0 °F 42.4 °F 30.34 in Calm   -999.0 mph 54 % 0 in
23:30 58.6 °F 42.0 °F 30.34 in Calm   -999.0 mph 54 % 0 in
23:46 58.1 °F 41.5 °F 30.34 in Calm   -999.0 mph 54 % 0 in
Big Bear CA Weather
Compliments of Weather Underground - 1.5 mb